Time;durP1;ratioP1;P1;durP2;ratioP2;P2;SDS_P1;SDS_P2;PMS_P1;PMS_P2;Temp;Humidity;BMP_temperature;BMP_pressure;BME280_temperature;BME280_humidity;BME280_pressure;Samples;Min_cycle;Max_cycle;Signal;HPM_P1;HPM_P2
2022/10/19 00:01:01;;;;;;;45.08;26.95;;;12.30;99.90;;;;;;2017842;29;20033;-76
2022/10/19 00:02:02;;;;;;;46.50;27.00;;;12.30;99.90;;;;;;2017559;29;20040;-78
2022/10/19 00:03:03;;;;;;;49.38;29.65;;;12.30;99.90;;;;;;2017930;29;20559;-76
2022/10/19 00:04:04;;;;;;;48.83;28.75;;;12.30;99.90;;;;;;2016866;29;20464;-76
2022/10/19 00:05:05;;;;;;;45.15;27.20;;;12.30;99.90;;;;;;2017606;29;20025;-76
2022/10/19 00:06:24;;;;;;;55.75;30.98;;;12.20;99.90;;;;;;2009662;29;20041;-77
2022/10/19 00:07:25;;;;;;;51.90;29.75;;;12.20;99.90;;;;;;2009637;29;20573;-76
2022/10/19 00:08:26;;;;;;;45.50;28.02;;;12.20;99.90;;;;;;2009744;29;20108;-76
2022/10/19 00:09:28;;;;;;;46.47;27.55;;;12.20;99.90;;;;;;2025015;29;20025;-77
2022/10/19 00:10:28;;;;;;;47.08;28.33;;;12.20;99.90;;;;;;2017968;29;20029;-76
2022/10/19 00:11:30;;;;;;;47.15;27.50;;;12.20;99.90;;;;;;2017242;29;20036;-76
2022/10/19 00:12:32;;;;;;;48.42;27.73;;;12.20;99.90;;;;;;2002279;29;20038;-76
2022/10/19 00:13:34;;;;;;;50.53;29.17;;;12.20;99.90;;;;;;2010356;29;20034;-76
2022/10/19 00:14:34;;;;;;;46.22;28.23;;;12.10;99.90;;;;;;2017544;29;20444;-76
2022/10/19 00:15:39;;;;;;;43.78;26.63;;;12.10;99.90;;;;;;2002646;29;20038;-76
2022/10/19 00:16:41;;;;;;;47.17;27.30;;;12.10;99.90;;;;;;2003492;29;20684;-76
2022/10/19 00:17:42;;;;;;;47.67;27.42;;;12.10;99.90;;;;;;2017409;29;20045;-76
2022/10/19 00:18:43;;;;;;;53.97;30.33;;;12.10;99.90;;;;;;2024985;29;20145;-76
2022/10/19 00:19:44;;;;;;;49.17;28.15;;;12.10;99.90;;;;;;2017740;29;20362;-75
2022/10/19 00:20:45;;;;;;;48.33;28.27;;;12.10;99.90;;;;;;2018272;29;20036;-77
2022/10/19 00:21:46;;;;;;;50.20;27.63;;;12.10;99.90;;;;;;2018277;29;20033;-75
2022/10/19 00:22:49;;;;;;;47.13;27.55;;;12.10;99.90;;;;;;2017071;29;20033;-76
2022/10/19 00:23:50;;;;;;;41.97;25.63;;;12.00;99.90;;;;;;2009571;29;20036;-74
2022/10/19 00:24:50;;;;;;;44.33;25.63;;;12.00;99.90;;;;;;2016730;29;20029;-75
2022/10/19 00:25:56;;;;;;;37.75;23.95;;;12.00;99.90;;;;;;2017590;29;20039;-74
2022/10/19 00:26:56;;;;;;;40.17;23.80;;;12.00;99.90;;;;;;2018072;29;20431;-75
2022/10/19 00:27:57;;;;;;;38.25;23.70;;;11.90;99.90;;;;;;2017635;29;20025;-74
2022/10/19 00:28:58;;;;;;;49.38;27.75;;;12.00;99.90;;;;;;2017718;29;20045;-76
2022/10/19 00:29:58;;;;;;;44.83;25.92;;;12.00;99.90;;;;;;2010900;29;20082;-76
2022/10/19 00:31:08;;;;;;;45.78;26.45;;;12.00;99.90;;;;;;2002074;29;20038;-76
2022/10/19 00:32:09;;;;;;;45.75;25.60;;;11.90;99.90;;;;;;2011424;29;20032;-75
2022/10/19 00:33:09;;;;;;;46.25;26.60;;;11.90;99.90;;;;;;2017116;29;20124;-76
2022/10/19 00:34:10;;;;;;;43.00;24.75;;;11.90;99.90;;;;;;2016643;29;20029;-75
2022/10/19 00:35:11;;;;;;;39.67;23.98;;;11.90;99.90;;;;;;2009664;29;20070;-74
2022/10/19 00:36:33;;;;;;;34.38;21.88;;;11.90;99.90;;;;;;2017740;29;20033;-75
2022/10/19 00:37:34;;;;;;;38.83;22.92;;;11.80;99.90;;;;;;2017058;29;20459;-76
2022/10/19 00:38:34;;;;;;;44.58;25.63;;;11.80;99.90;;;;;;2016965;29;20049;-74
2022/10/19 00:39:35;;;;;;;41.60;23.73;;;11.80;99.90;;;;;;2009199;29;20546;-75
2022/10/19 00:40:37;;;;;;;39.65;24.30;;;11.70;99.90;;;;;;2017246;29;20029;-75
2022/10/19 00:41:38;;;;;;;36.97;22.45;;;11.70;99.90;;;;;;2016872;29;20498;-75
2022/10/19 00:42:39;;;;;;;36.60;23.05;;;11.70;99.90;;;;;;2016913;29;20079;-75
2022/10/19 00:44:12;;;;;;;35.72;22.92;;;11.70;99.90;;;;;;2016970;29;20020;-75
2022/10/19 00:45:15;;;;;;;38.15;22.75;;;11.70;99.90;;;;;;2016064;29;20048;-75
2022/10/19 00:46:16;;;;;;;40.28;23.98;;;11.70;99.90;;;;;;2016088;29;20032;-73
2022/10/19 00:47:22;;;;;;;47.05;25.42;;;11.70;99.90;;;;;;2024010;29;20071;-74
2022/10/19 00:48:31;;;;;;;41.65;24.80;;;11.70;99.90;;;;;;2024604;29;20035;-73
2022/10/19 00:49:36;;;;;;;39.58;22.88;;;11.70;99.90;;;;;;2012159;29;20156;-75
2022/10/19 00:50:37;;;;;;;38.58;22.98;;;11.60;99.90;;;;;;2011013;29;20040;-73
2022/10/19 00:51:42;;;;;;;40.67;23.45;;;11.60;99.90;;;;;;2017992;29;20044;-74
2022/10/19 00:52:43;;;;;;;37.40;23.17;;;11.60;99.90;;;;;;2017302;29;20539;-74
2022/10/19 00:53:44;;;;;;;38.53;23.40;;;11.50;99.90;;;;;;2016914;29;20069;-74
2022/10/19 00:54:47;;;;;;;49.65;27.20;;;11.60;99.90;;;;;;2016052;29;20543;-75
2022/10/19 00:55:48;;;;;;;44.80;26.38;;;11.50;99.90;;;;;;2017084;29;20045;-76
2022/10/19 00:56:52;;;;;;;39.58;24.70;;;11.60;99.90;;;;;;2016726;29;20037;-76
2022/10/19 00:57:52;;;;;;;46.35;26.85;;;11.50;99.90;;;;;;2016751;29;20851;-76
2022/10/19 00:58:53;;;;;;;51.45;27.50;;;11.50;99.90;;;;;;2016649;29;20036;-75
2022/10/19 00:59:55;;;;;;;46.22;25.58;;;11.50;99.90;;;;;;2016856;29;20029;-74
2022/10/19 01:00:57;;;;;;;52.15;28.20;;;11.50;99.90;;;;;;2016385;29;20548;-76
2022/10/19 01:02:01;;;;;;;44.13;26.27;;;11.60;99.90;;;;;;2008990;29;20056;-76
2022/10/19 01:03:03;;;;;;;50.10;27.92;;;11.60;99.90;;;;;;2009068;29;20029;-75
2022/10/19 01:04:04;;;;;;;48.47;26.58;;;11.60;99.90;;;;;;2008753;29;20040;-74
2022/10/19 01:05:06;;;;;;;50.15;28.15;;;11.60;99.90;;;;;;2016517;29;20033;-74
2022/10/19 01:06:07;;;;;;;47.00;27.33;;;11.60;99.90;;;;;;2016628;29;20185;-74
2022/10/19 01:07:08;;;;;;;43.25;25.52;;;11.60;99.90;;;;;;2016466;29;20057;-75
2022/10/19 01:08:10;;;;;;;43.13;24.77;;;11.50;99.90;;;;;;2016664;29;20111;-75
2022/10/19 01:09:11;;;;;;;40.75;24.17;;;11.50;99.90;;;;;;2017091;29;20060;-75
2022/10/19 01:10:12;;;;;;;39.30;23.60;;;11.50;99.90;;;;;;2016690;29;20032;-74
2022/10/19 01:11:36;;;;;;;37.63;22.83;;;11.50;99.90;;;;;;2009062;29;20044;-75
2022/10/19 01:13:08;;;;;;;41.58;23.17;;;11.40;99.90;;;;;;2016932;29;20585;-74
2022/10/19 01:14:13;;;;;;;35.85;22.00;;;11.40;99.90;;;;;;2016870;29;20057;-75
2022/10/19 01:15:32;;;;;;;35.33;21.80;;;11.40;99.90;;;;;;2017019;29;20089;-74
2022/10/19 01:16:48;;;;;;;35.10;21.00;;;11.30;99.90;;;;;;2016492;29;20615;-75
2022/10/19 01:17:55;;;;;;;32.85;20.27;;;11.30;99.90;;;;;;2017680;29;20033;-75
2022/10/19 01:19:29;;;;;;;34.78;21.40;;;11.30;99.90;;;;;;2016550;29;20119;-73
2022/10/19 01:20:50;;;;;;;32.13;19.60;;;11.30;99.90;;;;;;2020820;29;20034;-74
2022/10/19 01:22:05;;;;;;;;;;;11.20;99.90;;;;;;2022543;29;20076;-75
2022/10/19 01:23:27;;;;;;;37.30;21.25;;;11.20;99.90;;;;;;2017405;29;19919;-75
2022/10/19 01:24:53;;;;;;;35.90;20.88;;;11.20;99.90;;;;;;2016509;29;20052;-74
2022/10/19 01:26:39;;;;;;;38.08;22.00;;;11.10;99.90;;;;;;2012142;29;20065;-74
2022/10/19 01:27:47;;;;;;;43.40;23.27;;;11.10;99.90;;;;;;2017017;29;20480;-75
2022/10/19 01:29:17;;;;;;;39.35;21.70;;;11.10;99.90;;;;;;2017163;29;20432;-74
2022/10/19 01:30:48;;;;;;;38.72;21.48;;;11.10;99.90;;;;;;2015858;29;20082;-75
2022/10/19 01:32:07;;;;;;;39.90;21.42;;;11.10;99.90;;;;;;2020291;29;20580;-75
2022/10/19 01:33:24;;;;;;;34.17;20.65;;;11.10;99.90;;;;;;2016868;29;20143;-74
2022/10/19 01:35:05;;;;;;;34.55;20.23;;;11.00;99.90;;;;;;2016333;29;20029;-76
2022/10/19 01:36:32;;;;;;;33.80;19.67;;;11.00;99.90;;;;;;2017166;29;20075;-76
2022/10/19 01:37:41;;;;;;;37.55;21.10;;;11.00;99.90;;;;;;2008754;29;20049;-76
2022/10/19 01:38:51;;;;;;;34.65;20.95;;;11.00;99.90;;;;;;2009923;29;20038;-76
2022/10/19 01:40:06;;;;;;;34.38;20.95;;;11.00;99.90;;;;;;2016566;29;20040;-76
2022/10/19 01:41:16;;;;;;;35.75;21.05;;;11.00;99.90;;;;;;2017124;29;20033;-76
2022/10/19 01:42:29;;;;;;;34.40;20.90;;;10.90;99.90;;;;;;2016521;29;20079;-75
2022/10/19 01:43:38;;;;;;;33.92;21.33;;;10.90;99.90;;;;;;2016539;29;20119;-75
2022/10/19 01:44:48;;;;;;;33.70;20.77;;;10.90;99.90;;;;;;2016700;29;20584;-75
2022/10/19 01:45:59;;;;;;;36.65;20.75;;;10.90;99.90;;;;;;2022924;29;20128;-75
2022/10/19 01:47:05;;;;;;;34.88;20.20;;;10.90;99.90;;;;;;2016148;29;20036;-75
2022/10/19 01:48:11;;;;;;;33.50;20.55;;;10.90;99.90;;;;;;2009388;29;20029;-75
2022/10/19 01:49:20;;;;;;;37.58;21.73;;;10.90;99.90;;;;;;2013587;29;20029;-75
2022/10/19 01:50:30;;;;;;;35.70;21.50;;;10.90;99.90;;;;;;2016744;29;20116;-75
2022/10/19 01:51:36;;;;;;;35.50;21.63;;;10.80;99.90;;;;;;2017634;29;20043;-76
2022/10/19 01:52:39;;;;;;;42.47;23.50;;;10.90;99.90;;;;;;2017305;29;20025;-76
2022/10/19 01:53:52;;;;;;;39.33;23.52;;;10.90;99.90;;;;;;2016512;29;20517;-76
2022/10/19 01:54:57;;;;;;;42.35;23.63;;;10.90;99.90;;;;;;2015719;29;20044;-75
2022/10/19 01:56:00;;;;;;;39.83;23.25;;;10.90;99.90;;;;;;2012186;29;20033;-75
2022/10/19 01:57:05;;;;;;;40.20;22.98;;;10.90;99.90;;;;;;2019287;29;20484;-75
2022/10/19 01:58:09;;;;;;;37.95;22.55;;;11.00;99.90;;;;;;2013362;29;20037;-76
2022/10/19 01:59:11;;;;;;;38.85;22.63;;;10.90;99.90;;;;;;2011680;29;20029;-74
2022/10/19 02:00:14;;;;;;;34.20;21.83;;;11.00;99.90;;;;;;2010611;29;20941;-75
2022/10/19 02:01:18;;;;;;;36.60;22.23;;;11.00;99.90;;;;;;2016444;29;20048;-76
2022/10/19 02:02:26;;;;;;;41.47;23.05;;;11.00;99.90;;;;;;2008875;29;20025;-76
2022/10/19 02:03:28;;;;;;;38.17;22.25;;;11.00;99.90;;;;;;2001858;29;20132;-76
2022/10/19 02:04:30;;;;;;;33.08;20.48;;;11.10;99.90;;;;;;1993279;29;20426;-76
2022/10/19 02:05:32;;;;;;;37.72;21.80;;;11.10;99.90;;;;;;1994051;29;20117;-76
2022/10/19 02:06:34;;;;;;;36.70;21.83;;;11.00;99.90;;;;;;2008960;29;20094;-76
2022/10/19 02:07:39;;;;;;;36.85;20.88;;;11.10;99.90;;;;;;2009474;29;20053;-75
2022/10/19 02:08:46;;;;;;;35.70;21.92;;;11.10;99.90;;;;;;2009489;29;20029;-76
2022/10/19 02:09:46;;;;;;;35.28;20.48;;;11.10;99.90;;;;;;2009336;29;20044;-76
2022/10/19 02:10:47;;;;;;;33.13;20.33;;;11.10;99.90;;;;;;2001646;29;20036;-76
2022/10/19 02:11:55;;;;;;;34.33;20.80;;;11.10;99.90;;;;;;2009139;29;20078;-75
2022/10/19 02:12:57;;;;;;;34.88;20.88;;;11.00;99.90;;;;;;2009682;29;20046;-76
2022/10/19 02:14:06;;;;;;;34.53;20.23;;;11.00;99.90;;;;;;2008715;29;20454;-75
2022/10/19 02:15:18;;;;;;;38.33;20.95;;;10.90;99.90;;;;;;2002287;29;20064;-75
2022/10/19 02:16:28;;;;;;;34.45;20.60;;;10.90;99.90;;;;;;2009279;29;20034;-74
2022/10/19 02:17:33;;;;;;;35.58;20.70;;;10.90;99.90;;;;;;2009246;29;20056;-75
2022/10/19 02:18:38;;;;;;;31.85;20.15;;;10.90;99.90;;;;;;2009746;29;20041;-75
2022/10/19 02:19:39;;;;;;;35.33;20.88;;;10.80;99.90;;;;;;2016900;29;20037;-75
2022/10/19 02:20:40;;;;;;;37.00;21.58;;;10.80;99.90;;;;;;2010392;29;20062;-75
2022/10/19 02:21:41;;;;;;;33.60;20.63;;;10.80;99.90;;;;;;2016962;29;20188;-75
2022/10/19 02:22:42;;;;;;;31.52;19.98;;;10.80;99.90;;;;;;2017131;29;20040;-75
2022/10/19 02:23:42;;;;;;;29.70;19.10;;;10.80;99.90;;;;;;2017215;29;20901;-75
2022/10/19 02:24:43;;;;;;;32.08;19.58;;;10.70;99.90;;;;;;2016315;29;20060;-74
2022/10/19 02:25:44;;;;;;;31.50;19.50;;;10.70;99.90;;;;;;2009223;29;20034;-75
2022/10/19 02:26:45;;;;;;;33.35;19.77;;;10.70;99.90;;;;;;2001723;29;20105;-76
2022/10/19 02:27:45;;;;;;;30.30;19.95;;;10.80;99.90;;;;;;2009580;29;20039;-76
2022/10/19 02:28:47;;;;;;;29.92;19.05;;;10.80;99.90;;;;;;2017127;29;20033;-74
2022/10/19 02:29:48;;;;;;;33.85;19.77;;;10.80;99.90;;;;;;2024873;29;20036;-75
2022/10/19 02:30:48;;;;;;;30.10;18.73;;;10.80;99.90;;;;;;2010196;29;20391;-75
2022/10/19 02:31:49;;;;;;;32.42;19.83;;;10.80;99.90;;;;;;2010283;29;20048;-74
2022/10/19 02:32:50;;;;;;;30.45;19.02;;;10.80;99.90;;;;;;2017978;29;20037;-76
2022/10/19 02:33:51;;;;;;;30.52;19.25;;;10.80;99.90;;;;;;2010279;29;20038;-75
2022/10/19 02:34:53;;;;;;;34.10;19.75;;;10.90;99.90;;;;;;2009578;29;20045;-75
2022/10/19 02:35:55;;;;;;;35.60;19.20;;;10.90;99.90;;;;;;2010266;29;20036;-74
2022/10/19 02:36:55;;;;;;;36.72;20.98;;;10.90;99.90;;;;;;2009679;29;20124;-75
2022/10/19 02:38:01;;;;;;;30.90;18.55;;;10.90;99.90;;;;;;2008930;29;20053;-75
2022/10/19 02:39:02;;;;;;;35.25;20.13;;;10.90;99.90;;;;;;2017563;29;20020;-75
2022/10/19 02:40:04;;;;;;;30.08;19.50;;;10.90;99.90;;;;;;2017590;29;20037;-75
2022/10/19 02:41:26;;;;;;;37.90;21.45;;;10.90;99.90;;;;;;2017582;29;20032;-75
2022/10/19 02:42:42;;;;;;;38.25;20.33;;;10.90;99.90;;;;;;2017167;29;20100;-75
2022/10/19 02:43:47;;;;;;;32.88;19.75;;;10.80;99.90;;;;;;2017197;29;20033;-76
2022/10/19 02:45:07;;;;;;;33.50;20.55;;;10.80;99.90;;;;;;2017012;29;20489;-75
2022/10/19 02:46:21;;;;;;;30.90;18.95;;;10.80;99.90;;;;;;2017187;29;20041;-75
2022/10/19 02:47:27;;;;;;;34.25;19.08;;;10.80;99.90;;;;;;2016471;29;20078;-75
2022/10/19 02:48:30;;;;;;;31.75;19.20;;;10.80;99.90;;;;;;2016636;29;20041;-75
2022/10/19 02:49:34;;;;;;;29.83;18.67;;;10.80;99.90;;;;;;2023495;29;20048;-74
2022/10/19 02:50:35;;;;;;;29.58;18.92;;;10.80;99.90;;;;;;2016116;29;20037;-75
2022/10/19 02:51:53;;;;;;;36.25;19.23;;;10.80;99.90;;;;;;2015941;29;20123;-75
2022/10/19 02:52:56;;;;;;;32.33;18.42;;;10.80;99.90;;;;;;2015939;29;20121;-75
2022/10/19 02:53:57;;;;;;;26.65;17.17;;;10.80;99.90;;;;;;2016052;29;20065;-74
2022/10/19 02:54:58;;;;;;;27.33;17.27;;;10.80;99.90;;;;;;2015925;29;20500;-77
2022/10/19 02:55:59;;;;;;;28.75;17.80;;;10.80;99.90;;;;;;2008235;29;20041;-76
2022/10/19 02:56:59;;;;;;;26.40;17.08;;;10.80;99.90;;;;;;2008311;29;20032;-75
2022/10/19 02:58:00;;;;;;;26.52;16.75;;;10.80;99.90;;;;;;2024189;29;20029;-76
2022/10/19 02:59:02;;;;;;;26.48;17.02;;;10.80;99.90;;;;;;2017192;29;20037;-75
2022/10/19 03:00:05;;;;;;;29.65;18.17;;;10.80;99.90;;;;;;2017651;29;20073;-75
2022/10/19 03:01:06;;;;;;;30.10;18.17;;;10.90;99.90;;;;;;2024507;29;20037;-76
2022/10/19 03:02:07;;;;;;;28.50;18.13;;;10.90;99.90;;;;;;2024760;29;20040;-75
2022/10/19 03:03:09;;;;;;;32.00;18.45;;;10.90;99.90;;;;;;2017441;29;20029;-76
2022/10/19 03:04:09;;;;;;;34.33;19.42;;;10.90;99.90;;;;;;2016495;29;20032;-77
2022/10/19 03:05:10;;;;;;;29.33;17.85;;;10.90;99.90;;;;;;2023347;29;20404;-75
2022/10/19 03:06:11;;;;;;;27.00;17.98;;;10.90;99.90;;;;;;2023757;29;20135;-75
2022/10/19 03:07:14;;;;;;;27.80;17.92;;;10.90;99.90;;;;;;2016527;29;20039;-75
2022/10/19 03:08:15;;;;;;;29.88;17.73;;;10.90;99.90;;;;;;2023919;29;20029;-75
2022/10/19 03:09:16;;;;;;;28.35;18.10;;;10.90;99.90;;;;;;2008372;29;20037;-75
2022/10/19 03:10:16;;;;;;;28.70;17.92;;;10.90;99.90;;;;;;2008735;29;20061;-75
2022/10/19 03:11:17;;;;;;;30.35;18.60;;;11.00;99.90;;;;;;2016545;29;20559;-75
2022/10/19 03:12:18;;;;;;;27.98;17.83;;;11.00;99.90;;;;;;2017179;29;20036;-75
2022/10/19 03:13:18;;;;;;;28.27;17.90;;;10.90;99.90;;;;;;2015909;29;20044;-75
2022/10/19 03:14:19;;;;;;;28.05;17.92;;;10.90;99.90;;;;;;2015585;29;20033;-75
2022/10/19 03:15:22;;;;;;;31.83;18.35;;;10.90;99.90;;;;;;2015702;29;20163;-75
2022/10/19 03:16:23;;;;;;;29.35;17.38;;;10.90;99.90;;;;;;2015914;29;20489;-76
2022/10/19 03:17:23;;;;;;;25.83;16.77;;;11.00;99.90;;;;;;2016243;29;20075;-75
2022/10/19 03:18:24;;;;;;;26.98;17.10;;;10.90;99.90;;;;;;2016532;29;20056;-74
2022/10/19 03:19:25;;;;;;;25.42;16.80;;;11.00;99.90;;;;;;2015847;29;20079;-75
2022/10/19 03:20:25;;;;;;;28.85;18.15;;;10.90;99.90;;;;;;2015746;29;20037;-75
2022/10/19 03:21:26;;;;;;;33.70;18.95;;;10.90;99.90;;;;;;2015732;29;20064;-75
2022/10/19 03:22:26;;;;;;;28.10;17.50;;;10.80;99.90;;;;;;2015811;29;20471;-75
2022/10/19 03:23:28;;;;;;;29.55;17.90;;;10.80;99.90;;;;;;2023554;29;20033;-76
2022/10/19 03:24:30;;;;;;;27.77;17.02;;;10.80;99.90;;;;;;2015240;29;20514;-75
2022/10/19 03:25:31;;;;;;;23.77;15.68;;;10.80;99.90;;;;;;2015273;29;20035;-76
2022/10/19 03:26:31;;;;;;;25.48;16.52;;;10.80;99.90;;;;;;2016600;29;20447;-75
2022/10/19 03:27:32;;;;;;;26.33;16.20;;;10.80;99.90;;;;;;2016073;29;20524;-75
2022/10/19 03:28:33;;;;;;;25.08;16.08;;;10.80;99.90;;;;;;2016366;29;20033;-75
2022/10/19 03:29:34;;;;;;;26.77;15.75;;;10.80;99.90;;;;;;2016331;29;20403;-76
2022/10/19 03:30:34;;;;;;;24.63;15.90;;;10.80;99.90;;;;;;2015728;29;20028;-74
2022/10/19 03:31:35;;;;;;;25.40;15.10;;;10.70;99.90;;;;;;2015941;29;20816;-75
2022/10/19 03:32:36;;;;;;;23.75;15.55;;;10.80;99.90;;;;;;2015895;29;20099;-75
2022/10/19 03:33:36;;;;;;;25.40;16.65;;;10.70;99.90;;;;;;2016260;29;20033;-75
2022/10/19 03:34:37;;;;;;;26.15;15.98;;;10.70;99.90;;;;;;2015237;29;20095;-75
2022/10/19 03:35:37;;;;;;;28.15;16.80;;;10.70;99.90;;;;;;2007951;29;20125;-76
2022/10/19 03:36:39;;;;;;;28.33;17.27;;;10.70;99.90;;;;;;2015401;29;20029;-76
2022/10/19 03:37:40;;;;;;;24.15;15.70;;;10.70;99.90;;;;;;2023326;29;20029;-75
2022/10/19 03:38:40;;;;;;;25.55;16.08;;;10.80;99.90;;;;;;2016105;29;20033;-76
2022/10/19 03:39:41;;;;;;;26.42;16.42;;;10.70;99.90;;;;;;2016257;29;20041;-76
2022/10/19 03:40:42;;;;;;;30.08;17.63;;;10.70;99.90;;;;;;2015649;29;20414;-75
2022/10/19 03:41:43;;;;;;;27.92;17.30;;;10.80;99.90;;;;;;2007914;29;20057;-76
2022/10/19 03:42:44;;;;;;;27.23;16.13;;;10.70;99.90;;;;;;2000331;29;20124;-75
2022/10/19 03:43:44;;;;;;;29.75;17.45;;;10.80;99.90;;;;;;2008024;29;20034;-76
2022/10/19 03:44:45;;;;;;;29.35;17.10;;;10.70;99.90;;;;;;2015672;29;20527;-75
2022/10/19 03:45:46;;;;;;;27.58;17.88;;;10.80;99.90;;;;;;2015387;29;20056;-75
2022/10/19 03:46:46;;;;;;;27.85;17.25;;;10.80;99.90;;;;;;2007752;29;20559;-76
2022/10/19 03:47:51;;;;;;;26.17;16.77;;;10.80;99.90;;;;;;2008118;29;20025;-74
2022/10/19 03:48:52;;;;;;;27.67;17.27;;;10.80;99.90;;;;;;2015779;29;20040;-74
2022/10/19 03:49:52;;;;;;;26.20;16.92;;;10.80;99.90;;;;;;2015547;29;20496;-76
2022/10/19 03:51:01;;;;;;;32.00;18.23;;;10.80;99.90;;;;;;2015702;29;20037;-74
2022/10/19 03:52:01;;;;;;;31.23;18.98;;;10.90;99.90;;;;;;2016445;29;20090;-75
2022/10/19 03:53:02;;;;;;;30.23;17.88;;;10.90;99.90;;;;;;2015803;29;20041;-77
2022/10/19 03:54:05;;;;;;;29.95;17.65;;;10.90;99.90;;;;;;2015443;29;20067;-76
2022/10/19 03:55:06;;;;;;;27.73;17.38;;;10.90;99.90;;;;;;2015976;29;20033;-75
2022/10/19 03:56:16;;;;;;;28.48;17.45;;;10.90;99.90;;;;;;2015865;29;20120;-75
2022/10/19 03:57:17;;;;;;;29.50;18.00;;;10.90;99.90;;;;;;2015328;29;20463;-75
2022/10/19 03:58:18;;;;;;;29.00;17.30;;;10.90;99.90;;;;;;2015823;29;20041;-75
2022/10/19 03:59:18;;;;;;;26.92;16.70;;;11.00;99.90;;;;;;2016057;29;20068;-75
2022/10/19 04:00:19;;;;;;;26.73;17.33;;;11.00;99.90;;;;;;2016287;29;20040;-76
2022/10/19 04:01:29;;;;;;;28.75;16.98;;;11.00;99.90;;;;;;2016345;29;20067;-75
2022/10/19 04:02:29;;;;;;;29.17;18.42;;;11.00;99.90;;;;;;2015474;29;20041;-76
2022/10/19 04:03:30;;;;;;;30.98;17.70;;;11.00;99.90;;;;;;2015626;29;20029;-75
2022/10/19 04:04:30;;;;;;;32.67;17.83;;;10.90;99.90;;;;;;2015043;29;20041;-75
2022/10/19 04:05:31;;;;;;;30.75;17.92;;;11.00;99.90;;;;;;2007741;29;20025;-76
2022/10/19 04:06:35;;;;;;;24.85;17.08;;;10.90;99.90;;;;;;2007977;29;20033;-76
2022/10/19 04:07:35;;;;;;;26.38;15.93;;;11.00;99.90;;;;;;2015829;29;20032;-75
2022/10/19 04:08:36;;;;;;;29.50;17.38;;;11.00;99.90;;;;;;2023144;29;20029;-75
2022/10/19 04:09:38;;;;;;;27.85;17.20;;;11.00;99.90;;;;;;2016425;29;20116;-76
2022/10/19 04:10:38;;;;;;;30.63;17.85;;;11.00;99.90;;;;;;2015537;29;20033;-75
2022/10/19 04:11:39;;;;;;;30.92;17.42;;;10.90;99.90;;;;;;2015520;29;20029;-75
2022/10/19 04:12:40;;;;;;;28.40;18.10;;;10.90;99.90;;;;;;2016191;29;20044;-74
2022/10/19 04:13:40;;;;;;;29.75;17.83;;;10.90;99.90;;;;;;2015960;29;20025;-75
2022/10/19 04:14:41;;;;;;;25.55;17.17;;;10.90;99.90;;;;;;2015878;29;20797;-75
2022/10/19 04:15:42;;;;;;;29.80;17.13;;;10.90;99.90;;;;;;2016378;29;20068;-75
2022/10/19 04:16:42;;;;;;;27.58;16.38;;;10.90;99.90;;;;;;2015391;29;20037;-75
2022/10/19 04:17:43;;;;;;;27.75;17.52;;;10.90;99.90;;;;;;2007779;29;20030;-76
2022/10/19 04:18:44;;;;;;;33.28;17.75;;;10.90;99.90;;;;;;2007879;29;20148;-75
2022/10/19 04:19:44;;;;;;;30.02;17.27;;;10.90;99.90;;;;;;2015403;29;20044;-75
2022/10/19 04:20:45;;;;;;;28.83;17.50;;;10.90;99.90;;;;;;2023363;29;20080;-73
2022/10/19 04:21:47;;;;;;;31.10;17.95;;;10.90;99.90;;;;;;2023444;29;20032;-75
2022/10/19 04:22:48;;;;;;;36.97;18.80;;;10.90;99.90;;;;;;2016090;29;20440;-76
2022/10/19 04:23:50;;;;;;;26.25;16.92;;;10.80;99.90;;;;;;2016451;29;20033;-74
2022/10/19 04:24:52;;;;;;;35.35;18.35;;;10.90;99.90;;;;;;2016559;29;20482;-74
2022/10/19 04:26:02;;;;;;;27.27;17.20;;;10.80;99.90;;;;;;2009244;29;20033;-73
2022/10/19 04:27:03;;;;;;;29.83;17.35;;;10.90;99.90;;;;;;2010451;29;20089;-74
2022/10/19 04:28:03;;;;;;;31.95;16.65;;;10.90;99.90;;;;;;2015848;29;20113;-74
2022/10/19 04:29:04;;;;;;;28.63;16.98;;;10.90;99.90;;;;;;2022842;29;20016;-73
2022/10/19 04:30:06;;;;;;;26.02;16.92;;;10.90;99.90;;;;;;2015613;29;20212;-75
2022/10/19 04:31:07;;;;;;;26.90;15.98;;;10.90;99.90;;;;;;2016625;29;20043;-74
2022/10/19 04:32:07;;;;;;;26.15;16.55;;;10.90;99.90;;;;;;2016406;29;20147;-74
2022/10/19 04:33:08;;;;;;;26.05;16.10;;;10.90;99.90;;;;;;2015678;29;20033;-74
2022/10/19 04:34:09;;;;;;;25.08;16.35;;;10.90;99.90;;;;;;2011870;29;20033;-75
2022/10/19 04:35:10;;;;;;;24.67;16.13;;;11.00;99.90;;;;;;2016148;29;20033;-74
2022/10/19 04:36:11;;;;;;;31.33;16.92;;;10.90;99.90;;;;;;2023472;29;20032;-74
2022/10/19 04:37:11;;;;;;;28.83;16.05;;;10.90;99.90;;;;;;2017577;29;20064;-73
2022/10/19 04:38:12;;;;;;;29.38;16.60;;;10.90;99.90;;;;;;2017717;29;20040;-76
2022/10/19 04:39:13;;;;;;;28.23;16.63;;;10.90;99.90;;;;;;2016899;29;20125;-74
2022/10/19 04:40:14;;;;;;;24.77;15.80;;;10.90;99.90;;;;;;2017166;29;20037;-76
2022/10/19 04:41:18;;;;;;;27.05;16.00;;;10.90;99.90;;;;;;2017503;29;20116;-76
2022/10/19 04:42:18;;;;;;;29.60;15.88;;;10.90;99.90;;;;;;2017551;29;20040;-76
2022/10/19 04:43:19;;;;;;;26.33;16.08;;;11.00;99.90;;;;;;2024697;29;20032;-76
2022/10/19 04:44:20;;;;;;;27.33;16.10;;;10.90;99.90;;;;;;2016764;29;20021;-75
2022/10/19 04:45:20;;;;;;;27.23;17.30;;;10.90;99.90;;;;;;2016801;29;20025;-74
2022/10/19 04:46:21;;;;;;;27.58;16.70;;;10.90;99.90;;;;;;2016870;29;20033;-72
2022/10/19 04:47:22;;;;;;;27.00;15.55;;;11.00;99.90;;;;;;2016564;29;20531;-71
2022/10/19 04:48:22;;;;;;;25.55;15.93;;;11.00;99.90;;;;;;2017686;29;20629;-74
2022/10/19 04:49:23;;;;;;;33.17;16.73;;;11.00;99.90;;;;;;2016720;29;20033;-73
2022/10/19 04:50:24;;;;;;;32.53;17.63;;;11.00;99.90;;;;;;2009305;29;20080;-71
2022/10/19 04:51:29;;;;;;;31.52;17.98;;;11.00;99.90;;;;;;2009597;29;20468;-73
2022/10/19 04:52:30;;;;;;;28.60;16.63;;;11.00;99.90;;;;;;2016794;29;20084;-72
2022/10/19 04:53:31;;;;;;;30.42;17.13;;;11.00;99.90;;;;;;2017678;29;20052;-73
2022/10/19 04:54:32;;;;;;;35.40;17.92;;;11.00;99.90;;;;;;2017321;29;20044;-73
2022/10/19 04:55:33;;;;;;;29.50;16.63;;;10.90;99.90;;;;;;2017320;29;20092;-73
2022/10/19 04:56:33;;;;;;;33.08;17.75;;;11.00;99.90;;;;;;2017702;29;20047;-71
2022/10/19 04:57:34;;;;;;;34.83;19.10;;;11.00;99.90;;;;;;2024841;29;20087;-75
2022/10/19 04:58:35;;;;;;;32.03;18.00;;;11.00;99.90;;;;;;2024648;29;20025;-73
2022/10/19 04:59:35;;;;;;;29.13;17.00;;;11.00;99.90;;;;;;2017043;29;20590;-74
2022/10/19 05:00:39;;;;;;;31.02;17.45;;;10.90;99.90;;;;;;2016781;29;20527;-72
2022/10/19 05:01:40;;;;;;;35.83;19.23;;;10.90;99.90;;;;;;2017305;29;20109;-74
2022/10/19 05:02:44;;;;;;;32.80;18.63;;;10.90;99.90;;;;;;2017682;29;20041;-74
2022/10/19 05:03:46;;;;;;;31.95;17.83;;;10.90;99.90;;;;;;2017507;29;20104;-73
2022/10/19 05:04:47;;;;;;;31.20;18.67;;;10.90;99.90;;;;;;2017186;29;20036;-74
2022/10/19 05:05:48;;;;;;;33.33;17.95;;;10.90;99.90;;;;;;2017304;29;20025;-72
2022/10/19 05:06:49;;;;;;;27.90;17.02;;;10.80;99.90;;;;;;2016582;29;20029;-73
2022/10/19 05:07:49;;;;;;;30.67;18.08;;;10.90;99.90;;;;;;2017055;29;20783;-72
2022/10/19 05:08:51;;;;;;;29.15;17.90;;;10.90;99.90;;;;;;2016836;29;20088;-72
2022/10/19 05:09:51;;;;;;;29.90;17.35;;;10.90;99.90;;;;;;2009130;29;20054;-72
2022/10/19 05:10:52;;;;;;;30.63;18.13;;;10.80;99.90;;;;;;2016661;29;20395;-73
2022/10/19 05:11:53;;;;;;;31.10;17.17;;;10.80;99.90;;;;;;2017367;29;20531;-73
2022/10/19 05:12:53;;;;;;;41.25;24.88;;;10.90;99.90;;;;;;2016806;29;20041;-73
2022/10/19 05:13:55;;;;;;;32.22;20.20;;;10.90;99.90;;;;;;2016920;29;20028;-76
2022/10/19 05:14:56;;;;;;;32.00;19.50;;;10.80;99.90;;;;;;2023710;29;20143;-73
2022/10/19 05:15:59;;;;;;;32.20;17.73;;;10.90;99.90;;;;;;2016490;29;20571;-73
2022/10/19 05:17:00;;;;;;;28.90;16.95;;;10.90;99.90;;;;;;2016078;29;20037;-73
2022/10/19 05:18:00;;;;;;;27.58;16.75;;;10.80;99.90;;;;;;2008558;29;20632;-75
2022/10/19 05:19:01;;;;;;;26.13;15.43;;;10.90;99.90;;;;;;2009069;29;20044;-74
2022/10/19 05:20:02;;;;;;;28.15;16.27;;;10.90;99.90;;;;;;2016933;29;20492;-73
2022/10/19 05:21:08;;;;;;;33.55;17.90;;;10.90;99.90;;;;;;2017615;29;20062;-73
2022/10/19 05:22:09;;;;;;;34.83;17.50;;;10.90;99.90;;;;;;2016490;29;20060;-74
2022/10/19 05:23:10;;;;;;;30.95;16.85;;;10.90;99.90;;;;;;2016643;29;20025;-73
2022/10/19 05:24:12;;;;;;;33.90;17.52;;;10.90;99.90;;;;;;2016849;29;20033;-73
2022/10/19 05:25:12;;;;;;;34.13;18.88;;;10.90;99.90;;;;;;2016007;29;20056;-74